This is the latest recevied weather packets stored in our database for station/object N5CNB. If no packets are shown the sender has not sent any weather packets the latest 10 day(s).
| Time | Temp. | Humidity | Pressure | Rain* | Wind** | Luminosity | Snow |
|---|---|---|---|---|---|---|---|
| 1778366705 | 24.44° C | 68% | 1009.2 hPa | 0 mm | - | - | - |
| 1778365808 | 26.11° C | 67% | 1008.8 hPa | 0 mm | - | - | - |
| 1778364910 | 27.22° C | 71% | 1009.2 hPa | 0 mm | - | - | - |
| 1778364014 | 29.44° C | 72% | 1008.3 hPa | 0 mm | - | - | - |
| 1778363105 | 29.44° C | 71% | 1008.3 hPa | 0 mm | - | - | - |
| 1778362204 | 31.11° C | 67% | 1008.7 hPa | 0 mm | - | - | - |
| 1778361312 | 32.22° C | 60% | 1008.5 hPa | 0 mm | - | - | - |
| 1778360412 | 33.33° C | 58% | 1008.6 hPa | 0 mm | - | - | - |
| 1778359517 | 32.78° C | 59% | 1008.8 hPa | 0 mm | - | - | - |
| 1778358605 | 33.33° C | 59% | 1009 hPa | 0 mm | - | - | - |
| 1778357707 | 32.78° C | 63% | 1009.2 hPa | 0 mm | - | - | - |
| 1778356808 | 31.11° C | 65% | 1009.2 hPa | 0 mm | - | - | - |
| 1778355913 | 33.33° C | 59% | 1009.4 hPa | 0 mm | - | - | - |
| 1778355018 | 32.22° C | 63% | 1009.6 hPa | 0 mm | - | - | - |
| 1778354104 | 32.78° C | 63% | 1009.8 hPa | 0 mm | - | - | - |
| 1778353208 | 31.67° C | 67% | 1010 hPa | 0 mm | - | - | - |
| 1778352317 | 30.56° C | 67% | 1010.1 hPa | 0 mm | - | - | - |
| 1778351416 | 30° C | 70% | 1010.3 hPa | 0 mm | - | - | - |
| 1778350517 | 30° C | 69% | 1010.4 hPa | 0 mm | - | - | - |
| 1778349604 | 30° C | 72% | 1010.7 hPa | 0 mm | - | - | - |
| 1778348709 | 29.44° C | 73% | 1010.9 hPa | 0 mm | - | - | - |
| 1778347812 | 28.89° C | 74% | 1011.1 hPa | 0 mm | - | - | - |
| 1778346924 | 28.33° C | 76% | 1011.2 hPa | 0 mm | - | - | - |
| 1778346029 | 27.78° C | 75% | 1011.4 hPa | 0 mm | - | - | - |
| 1778345126 | 27.78° C | 76% | 1011.4 hPa | 0 mm | - | - | - |
* Rain latest hour (hover to see other rain measurements)
** Current wind speed in m/s (hover to see current wind gust speed)